Time;durP1;ratioP1;P1;durP2;ratioP2;P2;SDS_P1;SDS_P2;PMS_P1;PMS_P2;Temp;Humidity;BMP_temperature;BMP_pressure;BME280_temperature;BME280_humidity;BME280_pressure;Samples;Min_cycle;Max_cycle;Signal;HPM_P1;HPM_P2
2021/10/21 00:01:43;;;;;;;3.13;1.77;;;;;;;17.88;59.94;99088.44;5010962;28;20040;-79
2021/10/21 00:04:09;;;;;;;3.10;1.90;;;;;;;17.87;59.15;99080.53;5028680;28;20068;-79
2021/10/21 00:06:34;;;;;;;3.13;1.83;;;;;;;17.86;59.00;99076.97;5013327;28;20065;-79
2021/10/21 00:08:59;;;;;;;3.08;1.35;;;;;;;17.89;58.52;99090.16;5012603;28;20033;-79
2021/10/21 00:11:25;;;;;;;1.85;1.10;;;;;;;17.92;59.05;99091.78;5013186;28;20053;-79
2021/10/21 00:13:51;;;;;;;3.33;1.33;;;;;;;17.89;58.06;99083.94;5031705;28;20436;-79
2021/10/21 00:16:16;;;;;;;3.33;1.30;;;;;;;17.92;58.06;99073.09;5012612;28;20038;-78
2021/10/21 00:18:42;;;;;;;5.15;1.48;;;;;;;17.93;57.92;99065.00;5015020;28;20030;-79
2021/10/21 00:21:07;;;;;;;2.78;1.08;;;;;;;17.99;57.69;99058.44;5018505;28;20041;-78
2021/10/21 00:23:32;;;;;;;3.85;1.58;;;;;;;17.99;57.42;99060.25;5015833;28;20041;-79
2021/10/21 00:25:59;;;;;;;2.17;1.10;;;;;;;18.00;57.49;99046.81;5012303;28;20038;-79
2021/10/21 00:28:25;;;;;;;2.35;1.17;;;;;;;17.97;57.63;99052.31;5012542;28;20044;-79
2021/10/21 00:30:50;;;;;;;4.35;0.90;;;;;;;17.95;57.55;99051.56;5014038;28;20094;-79
2021/10/21 00:33:15;;;;;;;2.85;1.10;;;;;;;17.96;57.59;99051.47;5011094;28;20042;-78
2021/10/21 00:35:41;;;;;;;2.13;1.15;;;;;;;17.99;58.00;99057.56;5015124;28;20038;-78
2021/10/21 00:38:06;;;;;;;2.03;1.05;;;;;;;18.05;57.92;99054.53;5012850;28;20085;-78
2021/10/21 00:40:31;;;;;;;2.60;1.20;;;;;;;18.05;58.07;99051.84;5016215;28;20037;-79
2021/10/21 00:42:57;;;;;;;2.38;0.98;;;;;;;18.03;57.98;99035.09;5006899;28;20038;-79
2021/10/21 00:45:22;;;;;;;2.80;0.95;;;;;;;17.97;57.87;99030.97;5018972;28;20121;-79
2021/10/21 00:47:48;;;;;;;2.78;0.88;;;;;;;17.91;57.92;99032.19;5015345;28;20053;-79
2021/10/21 00:50:13;;;;;;;3.85;0.93;;;;;;;17.87;58.11;99027.16;5034637;28;20040;-79
2021/10/21 00:52:38;;;;;;;3.10;1.00;;;;;;;17.78;58.65;99020.50;5013336;28;20480;-79
2021/10/21 00:55:06;;;;;;;2.13;1.10;;;;;;;17.74;59.22;99017.19;5031034;28;20034;-79
2021/10/21 00:57:31;;;;;;;2.63;1.10;;;;;;;17.70;59.18;99001.44;5025889;28;20061;-79
2021/10/21 00:59:57;;;;;;;3.17;0.90;;;;;;;17.72;59.51;98989.72;5016100;28;20035;-78
2021/10/21 01:02:22;;;;;;;2.92;0.80;;;;;;;17.71;59.29;98997.81;5017445;28;20038;-78
2021/10/21 01:04:48;;;;;;;2.55;0.90;;;;;;;17.70;59.89;98996.09;4995530;28;20040;-78
2021/10/21 01:07:14;;;;;;;2.65;1.10;;;;;;;17.66;59.70;98984.75;4998876;28;20037;-79
2021/10/21 01:09:42;;;;;;;1.75;0.90;;;;;;;17.63;60.13;98986.75;5024207;28;20098;-79
2021/10/21 01:12:10;;;;;;;1.52;0.90;;;;;;;17.58;60.69;98991.47;5016102;28;20041;-79
2021/10/21 01:14:35;;;;;;;2.67;0.95;;;;;;;17.52;60.98;98992.72;5016275;28;20046;-79
2021/10/21 01:17:01;;;;;;;2.08;0.80;;;;;;;17.57;60.85;98984.44;5016748;28;20041;-79
2021/10/21 01:19:26;;;;;;;1.77;0.88;;;;;;;17.57;60.91;98979.97;5022421;28;20034;-78
2021/10/21 01:21:54;;;;;;;2.67;0.90;;;;;;;17.60;61.42;98965.59;5017082;28;20048;-79
2021/10/21 01:24:20;;;;;;;3.90;0.88;;;;;;;17.62;61.31;98961.88;5014260;28;20022;-79
2021/10/21 01:26:50;;;;;;;3.60;1.08;;;;;;;17.55;61.85;98959.66;5016074;28;20085;-79
2021/10/21 01:29:17;;;;;;;2.85;1.10;;;;;;;17.55;62.41;98955.19;4997573;28;20109;-79
2021/10/21 01:31:43;;;;;;;1.58;1.00;;;;;;;17.57;62.57;98947.09;5016340;28;20046;-78
2021/10/21 01:34:10;;;;;;;1.70;0.88;;;;;;;17.56;63.09;98940.91;5004230;28;20094;-79
2021/10/21 01:36:37;;;;;;;2.08;1.15;;;;;;;17.56;63.45;98951.59;5016336;28;20048;-78
2021/10/21 01:39:05;;;;;;;2.85;1.02;;;;;;;17.59;63.34;98939.88;5021424;28;20038;-79
2021/10/21 01:41:31;;;;;;;2.10;1.02;;;;;;;17.61;63.79;98940.66;4985171;28;20098;-79
2021/10/21 01:43:56;;;;;;;3.30;1.30;;;;;;;17.58;64.31;98943.47;5009671;28;20042;-79
2021/10/21 01:46:22;;;;;;;2.03;1.00;;;;;;;17.55;64.32;98936.50;5016910;28;20041;-79
2021/10/21 01:48:48;;;;;;;2.33;1.13;;;;;;;17.50;64.97;98939.47;5013340;28;20098;-78
2021/10/21 01:51:14;;;;;;;2.92;1.00;;;;;;;17.52;64.94;98934.88;5015218;28;20085;-79
2021/10/21 01:53:40;;;;;;;3.25;1.15;;;;;;;17.46;64.96;98929.94;5009248;28;20062;-78
2021/10/21 01:56:05;;;;;;;3.88;1.77;;;;;;;17.52;64.77;98929.56;5030123;28;20045;-79
2021/10/21 01:58:30;;;;;;;2.05;1.00;;;;;;;17.56;64.75;98918.72;5014996;28;20393;-79
2021/10/21 02:00:56;;;;;;;2.47;1.13;;;;;;;17.56;64.97;98902.72;5014743;28;20046;-79
2021/10/21 02:03:21;;;;;;;2.30;0.95;;;;;;;17.55;64.79;98906.31;5013708;28;20042;-79
2021/10/21 02:05:46;;;;;;;3.03;1.20;;;;;;;17.56;65.30;98918.72;5015793;28;20030;-79
2021/10/21 02:08:11;;;;;;;2.28;1.08;;;;;;;17.47;65.64;98915.63;5013720;28;20042;-78
2021/10/21 02:10:37;;;;;;;1.55;0.90;;;;;;;17.35;66.74;98912.88;5031694;28;20076;-79
2021/10/21 02:13:02;;;;;;;5.30;2.10;;;;;;;17.22;68.19;98910.91;5012956;28;20034;-79
2021/10/21 02:15:28;;;;;;;3.58;1.10;;;;;;;17.15;68.20;98876.72;5015547;28;20034;-79
2021/10/21 02:17:53;;;;;;;1.75;0.93;;;;;;;17.09;67.94;98857.47;5028455;28;20050;-78
2021/10/21 02:20:18;;;;;;;2.58;1.25;;;;;;;17.00;68.78;98842.03;5014478;28;20109;-78
2021/10/21 02:22:49;;;;;;;2.25;1.20;;;;;;;17.00;68.26;98828.72;5014056;28;20042;-79
2021/10/21 02:25:15;;;;;;;2.55;1.02;;;;;;;17.05;68.31;98829.28;5024377;28;20098;-78
2021/10/21 02:27:40;;;;;;;2.58;1.10;;;;;;;17.05;67.89;98794.63;5016020;28;20457;-78
2021/10/21 02:30:08;;;;;;;3.15;1.52;;;;;;;17.13;67.88;98767.50;5015930;28;20030;-79
2021/10/21 02:32:34;;;;;;;2.40;0.93;;;;;;;17.14;66.30;98728.41;5016184;28;20038;-79
2021/10/21 02:34:59;;;;;;;2.22;1.20;;;;;;;17.17;66.16;98710.41;5022494;28;20046;-79
2021/10/21 02:37:24;;;;;;;2.47;1.00;;;;;;;17.21;65.75;98717.28;5020079;28;20055;-80
2021/10/21 02:39:50;;;;;;;1.75;0.88;;;;;;;17.22;63.84;98728.78;5027139;28;20046;-79
2021/10/21 02:42:16;;;;;;;2.92;1.00;;;;;;;17.27;62.63;98705.38;5021802;28;20105;-79
2021/10/21 02:44:41;;;;;;;3.30;1.08;;;;;;;17.32;63.03;98663.28;5019201;28;20523;-80
2021/10/21 02:47:06;;;;;;;3.22;0.82;;;;;;;17.27;62.90;98641.38;5019866;28;20551;-79
2021/10/21 02:49:32;;;;;;;1.55;0.88;;;;;;;17.24;63.20;98588.25;5015664;28;20483;-78
2021/10/21 02:51:57;;;;;;;1.27;0.70;;;;;;;17.18;63.15;98588.63;5013804;28;20034;-79
2021/10/21 02:54:23;;;;;;;1.90;0.70;;;;;;;17.16;63.06;98619.84;5016290;28;20037;-79
2021/10/21 02:56:48;;;;;;;3.25;0.82;;;;;;;17.23;62.48;98650.50;5017087;28;20050;-79
2021/10/21 02:59:14;;;;;;;1.88;0.85;;;;;;;17.14;62.61;98635.13;5017251;28;20026;-78
2021/10/21 03:01:39;;;;;;;1.35;0.57;;;;;;;17.12;62.53;98626.34;5016466;28;20038;-78
2021/10/21 03:04:05;;;;;;;3.72;0.80;;;;;;;17.14;62.82;98601.31;5016793;28;20049;-79
2021/10/21 03:06:30;;;;;;;2.65;0.70;;;;;;;17.03;62.54;98596.66;5018968;28;20045;-79
2021/10/21 03:08:56;;;;;;;3.67;0.82;;;;;;;17.07;62.79;98602.66;5024203;28;20068;-79
2021/10/21 03:11:21;;;;;;;5.43;0.90;;;;;;;17.05;62.21;98605.41;5027401;28;20034;-79
2021/10/21 03:13:46;;;;;;;2.10;0.70;;;;;;;17.05;62.33;98583.22;5016105;28;20065;-79
2021/10/21 03:16:12;;;;;;;1.30;0.60;;;;;;;17.02;62.38;98578.94;5034089;28;20045;-78
2021/10/21 03:18:37;;;;;;;2.25;0.60;;;;;;;17.07;61.57;98568.84;5030850;28;20034;-79
2021/10/21 03:21:02;;;;;;;2.75;0.70;;;;;;;17.11;61.42;98569.53;5017636;28;20034;-79
2021/10/21 03:23:28;;;;;;;0.98;0.60;;;;;;;17.09;61.92;98555.44;5030897;28;20041;-78
2021/10/21 03:25:54;;;;;;;2.03;0.47;;;;;;;17.03;61.80;98578.03;5008641;28;20045;-79
2021/10/21 03:28:19;;;;;;;1.35;0.50;;;;;;;17.07;62.18;98587.50;5017090;28;20038;-79
2021/10/21 03:30:45;;;;;;;2.63;0.60;;;;;;;17.06;61.85;98583.16;5016509;28;20039;-79
2021/10/21 03:33:14;;;;;;;3.58;0.60;;;;;;;17.11;61.98;98560.66;5017356;28;20404;-79
2021/10/21 03:35:40;;;;;;;2.00;0.60;;;;;;;17.08;62.76;98601.69;5016984;28;20038;-79
2021/10/21 03:38:05;;;;;;;1.92;0.70;;;;;;;17.09;62.51;98577.63;5016601;28;20033;-79
2021/10/21 03:40:31;;;;;;;0.82;0.43;;;;;;;17.05;62.26;98576.09;5016138;28;20038;-79
2021/10/21 03:42:56;;;;;;;1.05;0.40;;;;;;;17.08;62.37;98589.25;5018319;28;20030;-79
2021/10/21 03:45:21;;;;;;;6.78;0.80;;;;;;;17.13;61.96;98574.75;5014799;28;20049;-79
2021/10/21 03:47:47;;;;;;;1.70;0.70;;;;;;;17.04;62.60;98555.72;5014876;28;20559;-78
2021/10/21 03:50:13;;;;;;;2.13;0.50;;;;;;;17.05;62.82;98549.44;5005913;28;20033;-78
2021/10/21 03:52:39;;;;;;;2.50;0.70;;;;;;;16.97;63.51;98535.75;5017025;28;20022;-78
2021/10/21 03:55:05;;;;;;;2.28;0.77;;;;;;;16.97;63.65;98543.75;5013417;28;20067;-79
2021/10/21 03:57:30;;;;;;;2.30;0.82;;;;;;;16.90;64.19;98546.91;5016228;28;20038;-78
2021/10/21 04:05:22;;;;;;;1.88;0.95;;;;;;;16.70;65.44;98525.03;5168127;22;20052;-79
2021/10/21 04:22:31;;;;;;;0.98;0.50;;;;;;;16.56;66.24;98501.09;5013024;22;20513;-79
2021/10/21 04:24:56;;;;;;;1.95;0.70;;;;;;;16.54;66.57;98489.66;5009484;28;20038;-78
2021/10/21 04:27:22;;;;;;;1.27;0.50;;;;;;;16.55;66.55;98492.22;5015726;28;20030;-79
2021/10/21 04:29:47;;;;;;;1.45;0.70;;;;;;;16.55;66.35;98481.56;5013036;28;20038;-79
2021/10/21 04:32:12;;;;;;;1.35;0.60;;;;;;;16.53;66.64;98478.16;5011435;28;20102;-79
2021/10/21 04:34:37;;;;;;;2.78;0.60;;;;;;;16.54;66.32;98476.34;5010790;28;20084;-79
2021/10/21 04:37:03;;;;;;;2.22;0.60;;;;;;;16.54;66.77;98471.88;5009610;28;20043;-79
2021/10/21 04:39:28;;;;;;;2.88;1.00;;;;;;;16.55;66.49;98465.59;5013348;28;20092;-79
2021/10/21 04:41:54;;;;;;;1.42;0.75;;;;;;;16.60;66.34;98460.81;5008938;28;20060;-79
2021/10/21 04:44:19;;;;;;;1.40;0.63;;;;;;;16.60;66.50;98451.97;5011900;28;20103;-78
2021/10/21 04:46:45;;;;;;;7.72;4.53;;;;;;;16.50;66.46;98438.38;5012273;28;20033;-78
2021/10/21 04:49:10;;;;;;;2.33;1.10;;;;;;;16.62;66.03;98445.59;5011694;28;20080;-79
2021/10/21 04:51:36;;;;;;;2.03;0.80;;;;;;;16.65;65.72;98440.06;5012053;28;20079;-79
2021/10/21 04:54:01;;;;;;;1.00;0.43;;;;;;;16.69;65.86;98438.09;5011242;28;20101;-78
2021/10/21 04:56:26;;;;;;;1.27;0.50;;;;;;;16.72;65.18;98421.91;5017282;28;20041;-80
2021/10/21 04:58:52;;;;;;;1.25;0.70;;;;;;;16.67;65.09;98415.19;5018881;28;20029;-79
2021/10/21 05:01:17;;;;;;;1.45;0.70;;;;;;;16.80;64.77;98418.78;5017640;28;20034;-80
2021/10/21 05:03:42;;;;;;;1.63;0.88;;;;;;;16.83;63.73;98411.44;5023960;28;20029;-79
2021/10/21 05:06:08;;;;;;;1.42;0.70;;;;;;;16.92;63.27;98404.63;5015872;28;20071;-79
2021/10/21 05:08:33;;;;;;;2.28;1.10;;;;;;;17.03;62.71;98398.63;5006376;28;20057;-79
2021/10/21 05:10:58;;;;;;;1.17;0.50;;;;;;;17.13;62.12;98398.84;5019418;28;20069;-79
2021/10/21 05:13:24;;;;;;;1.23;0.50;;;;;;;17.17;61.87;98389.69;5015334;28;20083;-79
2021/10/21 05:15:49;;;;;;;1.00;0.50;;;;;;;17.25;62.37;98398.03;5016828;28;20045;-79
2021/10/21 05:18:15;;;;;;;1.77;0.55;;;;;;;17.25;63.00;98408.69;5013228;28;20039;-80
2021/10/21 05:20:41;;;;;;;1.92;0.60;;;;;;;17.13;64.19;98402.34;5015455;28;20034;-80
2021/10/21 05:23:06;;;;;;;3.65;0.65;;;;;;;16.90;65.49;98403.03;5013671;28;20068;-80
2021/10/21 05:25:31;;;;;;;1.05;0.60;;;;;;;16.58;67.90;98396.19;5015044;28;20389;-79
2021/10/21 05:27:57;;;;;;;2.75;0.57;;;;;;;16.48;67.42;98365.78;5012689;28;20101;-80
2021/10/21 05:30:23;;;;;;;1.70;0.55;;;;;;;16.48;67.61;98336.47;5015095;28;20094;-78
2021/10/21 05:32:48;;;;;;;1.45;0.70;;;;;;;16.45;67.77;98336.66;5020962;28;20065;-79
2021/10/21 05:35:13;;;;;;;1.00;0.60;;;;;;;16.50;66.86;98358.50;5015695;28;20046;-79
2021/10/21 05:37:39;;;;;;;2.95;0.70;;;;;;;16.59;66.40;98352.59;5015730;28;20089;-79
2021/10/21 05:40:08;;;;;;;2.20;0.55;;;;;;;16.60;66.05;98335.66;5012577;28;20032;-80
2021/10/21 05:42:33;;;;;;;2.03;0.80;;;;;;;16.74;65.52;98323.25;5011136;28;20048;-79
2021/10/21 05:44:59;;;;;;;2.67;0.63;;;;;;;16.83;64.95;98322.66;5015231;28;20121;-78
2021/10/21 05:47:25;;;;;;;1.77;0.73;;;;;;;16.94;64.09;98314.81;5017054;28;20128;-79
2021/10/21 05:49:51;;;;;;;2.90;0.63;;;;;;;16.97;64.00;98309.25;5012904;28;20057;-79
2021/10/21 05:52:16;;;;;;;1.40;0.50;;;;;;;17.07;63.79;98323.66;5014296;28;20034;-79
2021/10/21 05:54:42;;;;;;;2.55;0.77;;;;;;;17.13;62.97;98316.22;5017721;28;20057;-79
2021/10/21 05:57:08;;;;;;;2.38;0.77;;;;;;;17.27;62.23;98303.66;5015992;28;20042;-78
2021/10/21 05:59:33;;;;;;;2.90;0.98;;;;;;;17.36;62.16;98301.31;5011956;28;20070;-79
2021/10/21 06:01:59;;;;;;;3.75;0.77;;;;;;;17.41;61.39;98316.03;5015725;28;20057;-80
2021/10/21 06:04:24;;;;;;;1.88;0.80;;;;;;;17.43;61.42;98324.78;5012270;28;20481;-80
2021/10/21 06:06:49;;;;;;;2.10;1.00;;;;;;;17.49;61.02;98332.34;5014956;28;20034;-80
2021/10/21 06:09:20;;;;;;;1.42;0.60;;;;;;;17.62;60.89;98315.50;5011304;28;20146;-80
2021/10/21 06:11:45;;;;;;;2.28;0.73;;;;;;;17.73;60.06;98339.59;4994685;28;20049;-79
2021/10/21 06:14:10;;;;;;;2.15;0.60;;;;;;;17.83;59.13;98318.50;5014254;28;20034;-80
2021/10/21 06:16:36;;;;;;;2.90;0.93;;;;;;;17.99;58.85;98339.59;5013939;28;20038;-80
2021/10/21 06:19:01;;;;;;;4.00;0.80;;;;;;;18.02;57.59;98326.88;5009874;28;20033;-80
2021/10/21 06:21:28;;;;;;;4.90;0.80;;;;;;;18.20;55.17;98327.38;5014171;28;20053;-79
2021/10/21 06:23:54;;;;;;;10.68;1.00;;;;;;;18.29;54.44;98344.56;5015191;28;20057;-78
2021/10/21 06:26:20;;;;;;;12.57;1.10;;;;;;;18.26;53.31;98289.56;5013368;28;20091;-79
2021/10/21 06:28:49;;;;;;;7.30;1.00;;;;;;;18.36;53.94;98287.91;5013582;28;20567;-80
2021/10/21 06:31:14;;;;;;;9.07;1.13;;;;;;;18.21;53.74;98315.75;5013406;28;20089;-79
2021/10/21 06:33:40;;;;;;;9.70;1.05;;;;;;;18.15;52.46;98329.53;5023719;28;20034;-78
2021/10/21 06:36:06;;;;;;;6.80;1.40;;;;;;;18.23;51.71;98324.47;5014948;28;20420;-79
2021/10/21 06:38:32;;;;;;;3.15;1.02;;;;;;;18.25;52.42;98335.91;5011492;28;20094;-79
2021/10/21 06:40:57;;;;;;;8.93;4.05;;;;;;;18.22;53.34;98378.84;4997822;28;20044;-79
2021/10/21 06:43:23;;;;;;;7.65;1.10;;;;;;;18.30;54.24;98376.47;5015856;28;20504;-79
2021/10/21 06:45:48;;;;;;;3.92;0.65;;;;;;;18.06;57.73;98370.22;5011128;28;20129;-78
2021/10/21 06:48:13;;;;;;;12.63;0.80;;;;;;;17.71;59.61;98389.53;5011831;28;20042;-79
2021/10/21 07:10:44;;;;;;;;;;;;;;;;;;;;;
2021/10/21 07:12:50;;;;;;;3.85;0.70;;;;;;;16.72;54.94;98445.88;4989851;28;20058;-79
2021/10/21 07:19:48;;;;;;;4.18;0.82;;;;;;;16.53;54.67;98438.22;5163873;22;20092;-79
2021/10/21 07:23:03;;;;;;;4.95;1.10;;;;;;;16.57;54.28;98445.03;5015955;28;20041;-79
2021/10/21 07:25:31;;;;;;;5.97;0.90;;;;;;;16.48;54.81;98460.75;5014438;28;20081;-79
2021/10/21 07:32:01;;;;;;;4.22;0.50;;;;;;;16.35;54.77;98479.31;4973928;28;20057;-79
2021/10/21 07:38:01;;;;;;;3.22;0.73;;;;;;;16.17;56.27;98492.81;5015674;28;20030;-78
2021/10/21 07:40:26;;;;;;;3.53;0.75;;;;;;;15.91;58.87;98490.88;5014648;28;20044;-78
2021/10/21 07:42:51;;;;;;;3.25;0.50;;;;;;;15.51;59.95;98471.94;5015642;28;20046;-79
2021/10/21 07:45:17;;;;;;;2.80;0.65;;;;;;;15.36;60.47;98476.38;5015317;28;20040;-79
2021/10/21 07:47:42;;;;;;;6.18;0.95;;;;;;;15.31;61.09;98473.97;4998483;28;20088;-79
2021/10/21 07:50:09;;;;;;;3.72;0.40;;;;;;;15.17;61.93;98500.50;5032704;28;20037;-79
2021/10/21 07:52:37;;;;;;;3.17;0.80;;;;;;;15.09;62.17;98510.69;5014292;28;20046;-78
2021/10/21 07:55:04;;;;;;;7.43;1.00;;;;;;;15.03;62.60;98487.97;5016412;28;20073;-79
2021/10/21 07:57:30;;;;;;;2.35;0.43;;;;;;;15.11;62.47;98495.53;5017368;28;20042;-80
2021/10/21 07:59:55;;;;;;;4.05;0.70;;;;;;;15.28;62.14;98478.63;5002204;28;20037;-78
2021/10/21 08:02:21;;;;;;;6.40;0.68;;;;;;;15.44;61.60;98478.59;5023063;28;20054;-78
2021/10/21 08:04:46;;;;;;;5.43;0.63;;;;;;;15.60;61.06;98484.69;5017584;28;20042;-79
2021/10/21 08:07:11;;;;;;;3.58;0.98;;;;;;;15.68;59.61;98478.94;4998527;28;20052;-79
2021/10/21 08:10:22;;;;;;;4.47;0.70;;;;;;;15.93;55.67;98457.91;5020878;28;20038;-78
2021/10/21 08:12:26;;;;;;;6.95;1.10;;;;;;;16.26;51.94;98439.94;5009794;28;20061;-78
2021/10/21 08:14:52;;;;;;;5.82;0.70;;;;;;;16.24;51.53;98444.50;5012984;28;20026;-79
2021/10/21 08:17:17;;;;;;;6.25;1.08;;;;;;;16.27;49.75;98441.66;5014822;28;20045;-79
2021/10/21 08:19:42;;;;;;;2.70;0.77;;;;;;;16.34;48.29;98449.16;5018692;28;20049;-79
2021/10/21 08:22:08;;;;;;;14.85;1.48;;;;;;;16.45;47.78;98448.47;5014022;28;20046;-79
2021/10/21 08:24:33;;;;;;;8.13;1.27;;;;;;;16.55;47.27;98454.94;5006293;28;20046;-79
2021/10/21 08:26:58;;;;;;;12.95;1.15;;;;;;;16.67;46.56;98418.69;5000609;28;20037;-79
2021/10/21 08:29:24;;;;;;;8.95;1.23;;;;;;;16.76;46.47;98443.84;5030923;28;20038;-78
2021/10/21 08:32:01;;;;;;;21.00;1.70;;;;;;;16.77;46.86;98443.81;4999677;28;20038;-79
2021/10/21 08:34:27;;;;;;;19.17;1.60;;;;;;;16.93;47.31;98438.34;5009649;28;20096;-79
2021/10/21 08:36:52;;;;;;;8.60;1.83;;;;;;;17.03;47.32;98425.28;5018808;28;20037;-79
2021/10/21 08:39:17;;;;;;;12.88;1.63;;;;;;;17.06;46.81;98427.72;5014848;28;20037;-78
2021/10/21 08:41:45;;;;;;;5.32;1.55;;;;;;;17.17;46.72;98421.69;5000719;28;20041;-79
2021/10/21 08:44:11;;;;;;;14.13;1.77;;;;;;;17.30;46.08;98434.06;5009842;28;20076;-79
2021/10/21 08:46:38;;;;;;;24.90;2.20;;;;;;;17.30;46.85;98446.56;5019523;28;20432;-79
2021/10/21 08:49:04;;;;;;;27.02;2.25;;;;;;;17.29;46.45;98442.16;5018048;28;20037;-78
2021/10/21 08:51:31;;;;;;;9.88;1.33;;;;;;;17.31;45.83;98446.44;5017540;28;20512;-79
2021/10/21 08:53:58;;;;;;;24.42;2.33;;;;;;;17.16;46.04;98435.94;5017255;28;20068;-79
2021/10/21 08:56:25;;;;;;;43.30;2.72;;;;;;;17.05;46.35;98440.16;5014844;28;20037;-79
2021/10/21 08:58:54;;;;;;;35.15;3.10;;;;;;;17.00;46.43;98444.97;5015197;28;20033;-79
2021/10/21 09:01:29;;;;;;;23.48;2.88;;;;;;;17.06;46.98;98441.06;4999914;28;20038;-78
2021/10/21 09:32:39;;;;;;;11.20;1.35;;;;;;;16.41;48.57;98497.56;4284514;26;20045;-79
2021/10/21 09:35:06;;;;;;;18.63;1.50;;;;;;;16.32;48.67;98514.97;5057409;28;20051;-79
2021/10/21 09:37:34;;;;;;;6.35;1.55;;;;;;;16.19;48.63;98482.06;5053165;28;20488;-79
2021/10/21 09:40:11;;;;;;;15.15;1.48;;;;;;;16.11;49.07;98521.59;5056280;28;20059;-79
2021/10/21 09:42:43;;;;;;;22.10;1.70;;;;;;;16.04;49.63;98538.91;5049182;28;20053;-80
2021/10/21 09:45:17;;;;;;;15.00;1.70;;;;;;;16.10;49.83;98515.41;5055132;28;20044;-79
2021/10/21 09:47:50;;;;;;;19.58;1.88;;;;;;;16.05;49.93;98529.94;5054594;28;20415;-78
2021/10/21 09:50:16;;;;;;;44.22;3.33;;;;;;;16.04;49.94;98539.75;5052554;28;20102;-79
2021/10/21 09:52:41;;;;;;;29.38;3.00;;;;;;;16.10;50.04;98538.50;5055498;28;20038;-79
2021/10/21 09:55:12;;;;;;;28.95;2.42;;;;;;;16.11;50.08;98538.44;5056837;28;20035;-79
2021/10/21 09:57:38;;;;;;;20.23;1.63;;;;;;;16.00;50.19;98538.19;5052995;28;20037;-79
2021/10/21 10:00:08;;;;;;;13.68;1.48;;;;;;;15.94;50.89;98531.44;5054287;28;20036;-79
2021/10/21 10:02:39;;;;;;;8.95;1.17;;;;;;;15.88;50.56;98528.31;5049296;28;20033;-80
2021/10/21 10:05:07;;;;;;;17.83;1.90;;;;;;;15.81;50.62;98529.63;5043970;28;20100;-78
2021/10/21 10:07:35;;;;;;;21.20;3.08;;;;;;;15.77;50.53;98544.88;5053701;28;20029;-79
2021/10/21 10:10:02;;;;;;;18.80;2.08;;;;;;;15.73;50.53;98536.25;5051980;28;20554;-79
2021/10/21 10:12:30;;;;;;;11.95;1.15;;;;;;;15.64;50.36;98536.75;5049028;28;20419;-79
2021/10/21 10:14:56;;;;;;;5.38;1.00;;;;;;;15.67;50.89;98538.38;5051361;28;20041;-77
2021/10/21 10:17:21;;;;;;;8.18;1.33;;;;;;;15.55;51.98;98542.59;5044119;28;20094;-79
2021/10/21 10:19:49;;;;;;;10.93;0.90;;;;;;;15.49;52.04;98537.66;5048181;28;20033;-78
2021/10/21 10:22:24;;;;;;;6.35;1.15;;;;;;;15.44;51.23;98547.69;5047261;28;20028;-78
2021/10/21 10:24:51;;;;;;;11.57;1.40;;;;;;;15.46;51.75;98551.13;5051764;28;20040;-78
2021/10/21 10:27:20;;;;;;;9.13;0.98;;;;;;;15.50;51.56;98547.34;5044441;28;20101;-78
2021/10/21 10:29:47;;;;;;;10.43;1.10;;;;;;;15.43;53.55;98567.22;5044916;28;20134;-79
2021/10/21 10:32:34;;;;;;;7.22;0.70;;;;;;;14.99;55.35;98598.03;5043823;28;20041;-79
2021/10/21 10:35:05;;;;;;;10.18;0.77;;;;;;;14.82;57.46;98606.06;5032744;28;20048;-79
2021/10/21 10:37:30;;;;;;;18.02;0.90;;;;;;;14.58;57.11;98597.63;5055055;28;20033;-79
2021/10/21 10:40:00;;;;;;;12.93;0.95;;;;;;;14.40;59.58;98657.78;5048330;28;20098;-77
2021/10/21 10:42:46;;;;;;;12.70;0.93;;;;;;;14.15;60.11;98636.97;5044165;28;20408;-74
2021/10/21 10:45:12;;;;;;;15.20;1.23;;;;;;;14.15;57.90;98650.25;5026611;28;20056;-78
2021/10/21 10:47:38;;;;;;;17.98;1.20;;;;;;;14.35;54.74;98752.69;5048420;28;20036;-77
2021/10/21 10:50:05;;;;;;;21.05;1.67;;;;;;;14.48;53.77;98659.09;5044549;28;20507;-78
2021/10/21 10:52:49;;;;;;;22.13;2.05;;;;;;;14.66;53.37;98675.06;5041938;28;20036;-77
2021/10/21 10:55:17;;;;;;;26.52;1.92;;;;;;;14.75;53.04;98661.31;5040575;28;20033;-77
2021/10/21 10:57:42;;;;;;;27.88;1.70;;;;;;;14.77;52.91;98691.25;5044580;28;20403;-77
2021/10/21 11:00:49;;;;;;;40.47;1.67;;;;;;;14.72;52.45;98708.38;5044835;28;20030;-77
2021/10/21 11:03:30;;;;;;;35.55;2.70;;;;;;;14.67;52.75;98724.53;5038676;28;20049;-77
2021/10/21 11:05:57;;;;;;;64.40;4.00;;;;;;;14.56;53.13;98748.13;5041610;28;20515;-77
2021/10/21 11:08:57;;;;;;;28.60;2.88;;;;;;;14.66;53.32;98730.81;5049765;28;20095;-78
2021/10/21 11:11:40;;;;;;;23.88;2.42;;;;;;;14.69;53.41;98736.81;5036169;28;20045;-77
2021/10/21 11:14:08;;;;;;;62.40;4.20;;;;;;;14.70;53.60;98769.56;5051183;28;20499;-77
2021/10/21 11:16:41;;;;;;;47.15;4.15;;;;;;;14.63;54.38;98814.13;5047258;28;20033;-77
2021/10/21 11:19:08;;;;;;;69.22;3.95;;;;;;;14.47;56.07;98827.28;5046100;28;20037;-77
2021/10/21 11:21:48;;;;;;;137.48;8.23;;;;;;;13.93;60.54;98884.69;5031399;28;20487;-77
2021/10/21 11:24:49;;;;;;;80.50;5.22;;;;;;;13.02;65.70;98884.28;5044721;28;20488;-77
2021/10/21 11:27:26;;;;;;;14.65;1.48;;;;;;;12.82;67.71;98874.53;4963546;28;20094;-77
2021/10/21 11:29:53;;;;;;;5.03;0.40;;;;;;;13.04;66.11;98915.06;5013840;28;20049;-77
2021/10/21 11:32:19;;;;;;;5.90;0.65;;;;;;;13.33;62.62;98996.00;5043714;28;20550;-77
2021/10/21 11:34:51;;;;;;;5.57;0.60;;;;;;;13.53;60.68;98989.84;5044225;28;20075;-78
2021/10/21 11:37:36;;;;;;;5.75;0.60;;;;;;;13.62;57.18;99006.28;5045846;28;20585;-78
2021/10/21 11:40:03;;;;;;;7.07;0.40;;;;;;;13.55;57.37;98977.41;5042063;28;20072;-78
2021/10/21 11:42:29;;;;;;;20.20;1.15;;;;;;;13.58;56.54;99021.47;5047593;28;20063;-78
2021/10/21 11:45:05;;;;;;;11.75;0.98;;;;;;;13.59;55.92;99066.47;5048648;28;20092;-77
2021/10/21 11:47:33;;;;;;;12.27;0.60;;;;;;;13.57;56.05;99052.44;5050811;28;20047;-77
2021/10/21 11:49:58;;;;;;;14.85;0.80;;;;;;;13.66;55.94;99050.31;5029232;28;20036;-78
2021/10/21 11:52:39;;;;;;;11.05;0.75;;;;;;;13.80;56.19;99054.09;5045746;28;20100;-77
2021/10/21 11:55:06;;;;;;;3.30;0.30;;;;;;;13.78;55.35;99093.09;5050229;28;20496;-78
2021/10/21 11:57:33;;;;;;;4.43;0.20;;;;;;;13.77;55.73;99095.78;5045632;28;20094;-76
2021/10/21 11:59:58;;;;;;;3.53;0.52;;;;;;;13.70;56.21;99103.16;5047353;28;20044;-77
2021/10/21 12:02:28;;;;;;;1.40;0.43;;;;;;;13.55;57.98;99101.13;5047775;28;20029;-77
2021/10/21 12:04:54;;;;;;;2.75;0.40;;;;;;;13.12;62.11;99118.69;5046349;28;20097;-76
2021/10/21 12:07:19;;;;;;;6.65;0.40;;;;;;;12.58;66.31;99135.78;5046946;28;20069;-77
2021/10/21 12:09:45;;;;;;;1.67;0.30;;;;;;;12.19;69.84;99137.13;5046441;28;20041;-78
2021/10/21 12:12:13;;;;;;;2.30;0.10;;;;;;;12.12;68.28;99140.91;5041699;28;20035;-77
2021/10/21 12:14:41;;;;;;;1.75;0.40;;;;;;;12.01;68.52;99141.28;5043781;28;20103;-77
2021/10/21 12:17:08;;;;;;;0.88;0.20;;;;;;;12.32;66.88;99144.66;5043114;28;20120;-78
2021/10/21 12:19:34;;;;;;;1.55;0.43;;;;;;;12.56;64.60;99156.97;5043994;28;20596;-77
2021/10/21 12:22:14;;;;;;;5.60;0.35;;;;;;;12.98;63.25;99134.28;5042795;28;20069;-76
2021/10/21 12:24:42;;;;;;;4.15;0.40;;;;;;;13.17;60.38;99151.16;5044101;28;20037;-76
2021/10/21 12:27:08;;;;;;;2.83;0.68;;;;;;;13.31;58.89;99164.78;5047476;28;20102;-78
2021/10/21 12:29:43;;;;;;;16.67;1.15;;;;;;;13.58;57.79;99162.81;5046419;28;20037;-77
2021/10/21 12:32:18;;;;;;;16.42;1.63;;;;;;;13.51;57.82;99171.09;5043186;28;20042;-77
2021/10/21 12:34:45;;;;;;;11.23;0.77;;;;;;;13.49;57.52;99170.28;5052614;28;20042;-77
2021/10/21 12:37:22;;;;;;;16.83;1.50;;;;;;;13.53;58.42;99164.78;5049841;28;20041;-78
2021/10/21 12:39:47;;;;;;;17.90;1.02;;;;;;;13.67;58.63;99169.53;5044885;28;20036;-78
2021/10/21 12:42:22;;;;;;;9.23;0.70;;;;;;;13.72;57.61;99174.66;5044264;28;20083;-78
2021/10/21 12:44:58;;;;;;;4.43;0.75;;;;;;;13.66;57.76;99177.56;5043807;28;20085;-78
2021/10/21 12:47:25;;;;;;;9.10;0.70;;;;;;;13.54;57.28;99177.09;5046181;28;20044;-78
2021/10/21 12:49:53;;;;;;;3.40;0.47;;;;;;;13.57;57.18;99177.00;5042886;28;20446;-78
2021/10/21 12:52:24;;;;;;;7.30;0.90;;;;;;;13.57;57.20;99189.38;5044709;28;20037;-77
2021/10/21 12:54:49;;;;;;;5.93;0.55;;;;;;;13.59;56.83;99193.69;5042611;28;20037;-78